sensor_id;sensor_type;location;lat;lon;timestamp;P1;durP1;ratioP1;P2;durP2;ratioP2
32639;SDS011;19049;52.524;11.468;2023-12-07T00:00:41;16.00;;;11.13;;
32639;SDS011;19049;52.524;11.468;2023-12-07T00:03:06;19.93;;;13.07;;
32639;SDS011;19049;52.524;11.468;2023-12-07T00:05:32;17.93;;;11.67;;
32639;SDS011;19049;52.524;11.468;2023-12-07T00:07:58;18.73;;;11.90;;
32639;SDS011;19049;52.524;11.468;2023-12-07T00:10:24;17.77;;;11.43;;
32639;SDS011;19049;52.524;11.468;2023-12-07T00:12:49;16.40;;;10.70;;
32639;SDS011;19049;52.524;11.468;2023-12-07T00:15:15;16.77;;;11.80;;
32639;SDS011;19049;52.524;11.468;2023-12-07T00:17:40;18.47;;;10.93;;
32639;SDS011;19049;52.524;11.468;2023-12-07T00:20:06;16.63;;;11.50;;
32639;SDS011;19049;52.524;11.468;2023-12-07T00:22:32;15.90;;;11.30;;
32639;SDS011;19049;52.524;11.468;2023-12-07T00:24:58;18.50;;;11.80;;
32639;SDS011;19049;52.524;11.468;2023-12-07T00:27:24;15.57;;;10.57;;
32639;SDS011;19049;52.524;11.468;2023-12-07T00:29:49;16.83;;;11.53;;
32639;SDS011;19049;52.524;11.468;2023-12-07T00:32:15;19.57;;;12.20;;
32639;SDS011;19049;52.524;11.468;2023-12-07T00:34:41;17.00;;;11.37;;
32639;SDS011;19049;52.524;11.468;2023-12-07T00:37:06;17.43;;;11.37;;
32639;SDS011;19049;52.524;11.468;2023-12-07T00:39:32;19.53;;;12.67;;
32639;SDS011;19049;52.524;11.468;2023-12-07T00:41:58;23.30;;;14.13;;
32639;SDS011;19049;52.524;11.468;2023-12-07T00:44:23;20.20;;;13.00;;
32639;SDS011;19049;52.524;11.468;2023-12-07T00:46:49;21.30;;;13.53;;
32639;SDS011;19049;52.524;11.468;2023-12-07T00:49:15;21.40;;;13.80;;
32639;SDS011;19049;52.524;11.468;2023-12-07T00:51:41;20.47;;;12.80;;
32639;SDS011;19049;52.524;11.468;2023-12-07T00:54:06;25.27;;;14.97;;
32639;SDS011;19049;52.524;11.468;2023-12-07T00:56:32;22.63;;;14.80;;
32639;SDS011;19049;52.524;11.468;2023-12-07T00:58:58;24.70;;;13.83;;
32639;SDS011;19049;52.524;11.468;2023-12-07T01:01:23;18.87;;;12.57;;
32639;SDS011;19049;52.524;11.468;2023-12-07T01:03:49;21.47;;;13.30;;
32639;SDS011;19049;52.524;11.468;2023-12-07T01:06:15;20.23;;;12.73;;
32639;SDS011;19049;52.524;11.468;2023-12-07T01:08:41;24.30;;;14.47;;
32639;SDS011;19049;52.524;11.468;2023-12-07T01:11:08;19.17;;;11.83;;
32639;SDS011;19049;52.524;11.468;2023-12-07T01:13:34;20.57;;;13.23;;
32639;SDS011;19049;52.524;11.468;2023-12-07T01:16:01;20.50;;;13.13;;
32639;SDS011;19049;52.524;11.468;2023-12-07T01:18:26;22.33;;;13.93;;
32639;SDS011;19049;52.524;11.468;2023-12-07T01:20:52;24.53;;;15.67;;
32639;SDS011;19049;52.524;11.468;2023-12-07T01:23:17;23.57;;;14.63;;
32639;SDS011;19049;52.524;11.468;2023-12-07T01:25:43;25.83;;;15.53;;
32639;SDS011;19049;52.524;11.468;2023-12-07T01:28:08;18.77;;;11.93;;
32639;SDS011;19049;52.524;11.468;2023-12-07T01:30:34;22.53;;;14.17;;
32639;SDS011;19049;52.524;11.468;2023-12-07T01:33:01;18.37;;;12.93;;
32639;SDS011;19049;52.524;11.468;2023-12-07T01:35:27;22.90;;;14.60;;
32639;SDS011;19049;52.524;11.468;2023-12-07T01:37:53;18.17;;;12.87;;
32639;SDS011;19049;52.524;11.468;2023-12-07T01:40:19;26.03;;;16.03;;
32639;SDS011;19049;52.524;11.468;2023-12-07T01:42:51;20.73;;;13.70;;
32639;SDS011;19049;52.524;11.468;2023-12-07T01:45:18;28.40;;;17.60;;
32639;SDS011;19049;52.524;11.468;2023-12-07T01:47:44;28.73;;;18.37;;
32639;SDS011;19049;52.524;11.468;2023-12-07T01:50:12;24.63;;;15.90;;
32639;SDS011;19049;52.524;11.468;2023-12-07T01:52:44;23.67;;;14.37;;
32639;SDS011;19049;52.524;11.468;2023-12-07T01:55:12;21.00;;;14.37;;
32639;SDS011;19049;52.524;11.468;2023-12-07T01:57:39;26.27;;;16.00;;
32639;SDS011;19049;52.524;11.468;2023-12-07T02:00:06;25.83;;;16.57;;
32639;SDS011;19049;52.524;11.468;2023-12-07T02:02:34;25.03;;;16.17;;
32639;SDS011;19049;52.524;11.468;2023-12-07T02:05:00;29.57;;;17.80;;
32639;SDS011;19049;52.524;11.468;2023-12-07T02:07:26;27.87;;;16.97;;
32639;SDS011;19049;52.524;11.468;2023-12-07T02:09:53;30.27;;;19.07;;
32639;SDS011;19049;52.524;11.468;2023-12-07T02:12:19;28.60;;;17.60;;
32639;SDS011;19049;52.524;11.468;2023-12-07T02:14:45;32.20;;;19.23;;
32639;SDS011;19049;52.524;11.468;2023-12-07T02:22:12;26.57;;;14.33;;
32639;SDS011;19049;52.524;11.468;2023-12-07T02:25:06;26.00;;;15.87;;
32639;SDS011;19049;52.524;11.468;2023-12-07T02:27:37;28.90;;;18.03;;
32639;SDS011;19049;52.524;11.468;2023-12-07T02:30:06;24.07;;;15.70;;
32639;SDS011;19049;52.524;11.468;2023-12-07T02:32:33;33.77;;;19.10;;
32639;SDS011;19049;52.524;11.468;2023-12-07T02:35:00;35.63;;;20.83;;
32639;SDS011;19049;52.524;11.468;2023-12-07T02:37:27;34.00;;;18.67;;
32639;SDS011;19049;52.524;11.468;2023-12-07T02:39:55;30.57;;;16.83;;
32639;SDS011;19049;52.524;11.468;2023-12-07T02:42:21;30.87;;;17.57;;
32639;SDS011;19049;52.524;11.468;2023-12-07T02:44:51;29.67;;;16.43;;
32639;SDS011;19049;52.524;11.468;2023-12-07T02:47:18;30.10;;;18.03;;
32639;SDS011;19049;52.524;11.468;2023-12-07T02:49:43;27.63;;;16.47;;
32639;SDS011;19049;52.524;11.468;2023-12-07T02:52:09;28.43;;;16.57;;
32639;SDS011;19049;52.524;11.468;2023-12-07T02:54:35;25.40;;;15.37;;
32639;SDS011;19049;52.524;11.468;2023-12-07T02:57:01;29.23;;;16.20;;
32639;SDS011;19049;52.524;11.468;2023-12-07T02:59:27;29.83;;;17.23;;
32639;SDS011;19049;52.524;11.468;2023-12-07T03:01:52;28.17;;;17.57;;
32639;SDS011;19049;52.524;11.468;2023-12-07T03:04:18;28.83;;;17.27;;
32639;SDS011;19049;52.524;11.468;2023-12-07T03:06:44;28.83;;;15.43;;
32639;SDS011;19049;52.524;11.468;2023-12-07T03:09:09;35.77;;;18.93;;
32639;SDS011;19049;52.524;11.468;2023-12-07T03:11:35;28.40;;;16.83;;
32639;SDS011;19049;52.524;11.468;2023-12-07T03:14:00;30.40;;;16.77;;
32639;SDS011;19049;52.524;11.468;2023-12-07T03:16:26;32.33;;;18.70;;
32639;SDS011;19049;52.524;11.468;2023-12-07T03:18:51;34.67;;;19.80;;
32639;SDS011;19049;52.524;11.468;2023-12-07T03:21:17;32.67;;;18.10;;
32639;SDS011;19049;52.524;11.468;2023-12-07T03:23:42;35.73;;;19.33;;
32639;SDS011;19049;52.524;11.468;2023-12-07T03:26:08;34.53;;;18.50;;
32639;SDS011;19049;52.524;11.468;2023-12-07T03:28:34;27.53;;;14.60;;
32639;SDS011;19049;52.524;11.468;2023-12-07T03:30:59;30.87;;;16.97;;
32639;SDS011;19049;52.524;11.468;2023-12-07T03:33:25;26.67;;;14.57;;
32639;SDS011;19049;52.524;11.468;2023-12-07T03:35:50;27.63;;;14.27;;
32639;SDS011;19049;52.524;11.468;2023-12-07T03:38:16;29.27;;;15.17;;
32639;SDS011;19049;52.524;11.468;2023-12-07T03:40:42;33.10;;;16.77;;
32639;SDS011;19049;52.524;11.468;2023-12-07T03:43:07;31.67;;;16.50;;
32639;SDS011;19049;52.524;11.468;2023-12-07T03:45:33;31.43;;;15.30;;
32639;SDS011;19049;52.524;11.468;2023-12-07T03:47:58;29.90;;;16.33;;
32639;SDS011;19049;52.524;11.468;2023-12-07T03:50:24;30.97;;;16.10;;
32639;SDS011;19049;52.524;11.468;2023-12-07T03:52:50;36.73;;;19.97;;
32639;SDS011;19049;52.524;11.468;2023-12-07T03:55:15;39.17;;;19.70;;
32639;SDS011;19049;52.524;11.468;2023-12-07T03:57:41;42.67;;;19.90;;
32639;SDS011;19049;52.524;11.468;2023-12-07T04:00:07;28.57;;;15.37;;
32639;SDS011;19049;52.524;11.468;2023-12-07T04:02:35;37.00;;;18.43;;
32639;SDS011;19049;52.524;11.468;2023-12-07T04:05:01;31.90;;;15.57;;
32639;SDS011;19049;52.524;11.468;2023-12-07T04:07:29;33.37;;;16.93;;
32639;SDS011;19049;52.524;11.468;2023-12-07T04:09:55;30.87;;;15.20;;
32639;SDS011;19049;52.524;11.468;2023-12-07T04:12:22;31.00;;;16.27;;
32639;SDS011;19049;52.524;11.468;2023-12-07T04:14:49;28.87;;;14.80;;
32639;SDS011;19049;52.524;11.468;2023-12-07T04:17:15;26.93;;;12.97;;
32639;SDS011;19049;52.524;11.468;2023-12-07T04:19:40;31.47;;;15.47;;
32639;SDS011;19049;52.524;11.468;2023-12-07T04:22:06;27.73;;;13.10;;
32639;SDS011;19049;52.524;11.468;2023-12-07T04:24:32;31.63;;;16.27;;
32639;SDS011;19049;52.524;11.468;2023-12-07T04:26:57;25.87;;;13.37;;
32639;SDS011;19049;52.524;11.468;2023-12-07T04:29:23;26.50;;;12.80;;
32639;SDS011;19049;52.524;11.468;2023-12-07T04:31:48;31.73;;;13.97;;
32639;SDS011;19049;52.524;11.468;2023-12-07T04:34:14;31.00;;;14.63;;
32639;SDS011;19049;52.524;11.468;2023-12-07T04:36:40;27.93;;;14.37;;
32639;SDS011;19049;52.524;11.468;2023-12-07T04:39:06;29.60;;;14.90;;
32639;SDS011;19049;52.524;11.468;2023-12-07T04:41:31;30.83;;;14.17;;
32639;SDS011;19049;52.524;11.468;2023-12-07T04:43:57;30.30;;;14.57;;
32639;SDS011;19049;52.524;11.468;2023-12-07T04:46:22;31.00;;;13.37;;
32639;SDS011;19049;52.524;11.468;2023-12-07T04:48:48;33.73;;;14.63;;
32639;SDS011;19049;52.524;11.468;2023-12-07T04:51:13;35.67;;;15.57;;
32639;SDS011;19049;52.524;11.468;2023-12-07T04:53:39;47.93;;;19.47;;
32639;SDS011;19049;52.524;11.468;2023-12-07T04:56:05;43.97;;;18.17;;
32639;SDS011;19049;52.524;11.468;2023-12-07T04:58:31;35.50;;;15.77;;
32639;SDS011;19049;52.524;11.468;2023-12-07T05:00:57;38.80;;;16.60;;
32639;SDS011;19049;52.524;11.468;2023-12-07T05:03:22;34.03;;;14.47;;
32639;SDS011;19049;52.524;11.468;2023-12-07T05:05:48;30.50;;;13.70;;
32639;SDS011;19049;52.524;11.468;2023-12-07T05:08:14;30.40;;;12.67;;
32639;SDS011;19049;52.524;11.468;2023-12-07T05:10:40;34.47;;;14.80;;
32639;SDS011;19049;52.524;11.468;2023-12-07T05:13:06;39.57;;;15.80;;
32639;SDS011;19049;52.524;11.468;2023-12-07T05:15:31;36.50;;;14.63;;
32639;SDS011;19049;52.524;11.468;2023-12-07T05:17:57;36.47;;;14.60;;
32639;SDS011;19049;52.524;11.468;2023-12-07T05:20:23;35.73;;;13.97;;
32639;SDS011;19049;52.524;11.468;2023-12-07T05:22:49;32.57;;;13.60;;
32639;SDS011;19049;52.524;11.468;2023-12-07T05:25:15;38.53;;;14.17;;
32639;SDS011;19049;52.524;11.468;2023-12-07T05:27:41;45.50;;;16.87;;
32639;SDS011;19049;52.524;11.468;2023-12-07T05:30:06;37.43;;;14.87;;
32639;SDS011;19049;52.524;11.468;2023-12-07T05:32:32;31.50;;;13.80;;
32639;SDS011;19049;52.524;11.468;2023-12-07T05:34:58;37.83;;;14.00;;
32639;SDS011;19049;52.524;11.468;2023-12-07T05:37:24;33.70;;;11.67;;
32639;SDS011;19049;52.524;11.468;2023-12-07T05:39:49;36.27;;;11.80;;
32639;SDS011;19049;52.524;11.468;2023-12-07T05:42:15;33.23;;;11.73;;
32639;SDS011;19049;52.524;11.468;2023-12-07T05:44:41;39.07;;;12.57;;
32639;SDS011;19049;52.524;11.468;2023-12-07T05:47:06;28.87;;;12.80;;
32639;SDS011;19049;52.524;11.468;2023-12-07T05:49:33;33.00;;;11.33;;
32639;SDS011;19049;52.524;11.468;2023-12-07T05:51:58;36.23;;;11.73;;
32639;SDS011;19049;52.524;11.468;2023-12-07T05:54:24;34.77;;;11.97;;
32639;SDS011;19049;52.524;11.468;2023-12-07T05:56:50;42.93;;;12.40;;
32639;SDS011;19049;52.524;11.468;2023-12-07T05:59:15;30.57;;;11.10;;
32639;SDS011;19049;52.524;11.468;2023-12-07T06:01:41;36.57;;;11.67;;
32639;SDS011;19049;52.524;11.468;2023-12-07T06:04:08;29.13;;;11.13;;
32639;SDS011;19049;52.524;11.468;2023-12-07T06:06:35;31.77;;;12.17;;
32639;SDS011;19049;52.524;11.468;2023-12-07T06:09:00;32.83;;;11.23;;
32639;SDS011;19049;52.524;11.468;2023-12-07T06:11:26;29.13;;;11.30;;
32639;SDS011;19049;52.524;11.468;2023-12-07T06:13:52;35.43;;;12.80;;
32639;SDS011;19049;52.524;11.468;2023-12-07T06:16:17;45.73;;;13.07;;
32639;SDS011;19049;52.524;11.468;2023-12-07T06:18:43;28.97;;;11.53;;
32639;SDS011;19049;52.524;11.468;2023-12-07T06:21:09;29.27;;;11.67;;
32639;SDS011;19049;52.524;11.468;2023-12-07T06:23:35;30.37;;;11.20;;
32639;SDS011;19049;52.524;11.468;2023-12-07T06:26:01;35.93;;;11.67;;
32639;SDS011;19049;52.524;11.468;2023-12-07T06:28:27;34.70;;;11.40;;
32639;SDS011;19049;52.524;11.468;2023-12-07T06:30:53;32.07;;;11.07;;
32639;SDS011;19049;52.524;11.468;2023-12-07T06:33:19;29.37;;;11.37;;
32639;SDS011;19049;52.524;11.468;2023-12-07T06:35:45;35.37;;;11.73;;
32639;SDS011;19049;52.524;11.468;2023-12-07T06:38:12;34.53;;;11.30;;
32639;SDS011;19049;52.524;11.468;2023-12-07T06:40:37;41.57;;;12.10;;
32639;SDS011;19049;52.524;11.468;2023-12-07T06:43:03;38.70;;;11.33;;
32639;SDS011;19049;52.524;11.468;2023-12-07T06:45:28;39.30;;;11.27;;
32639;SDS011;19049;52.524;11.468;2023-12-07T06:47:54;34.73;;;9.40;;
32639;SDS011;19049;52.524;11.468;2023-12-07T06:50:20;55.37;;;12.43;;
32639;SDS011;19049;52.524;11.468;2023-12-07T06:52:46;53.87;;;12.07;;
32639;SDS011;19049;52.524;11.468;2023-12-07T06:55:11;34.77;;;11.03;;
32639;SDS011;19049;52.524;11.468;2023-12-07T06:57:39;28.00;;;11.63;;
32639;SDS011;19049;52.524;11.468;2023-12-07T07:00:05;47.50;;;11.67;;
32639;SDS011;19049;52.524;11.468;2023-12-07T07:02:35;27.87;;;10.60;;
32639;SDS011;19049;52.524;11.468;2023-12-07T07:05:02;27.03;;;10.43;;
32639;SDS011;19049;52.524;11.468;2023-12-07T07:07:28;35.20;;;10.27;;
32639;SDS011;19049;52.524;11.468;2023-12-07T07:09:56;20.50;;;9.80;;
32639;SDS011;19049;52.524;11.468;2023-12-07T07:12:22;18.27;;;8.50;;
32639;SDS011;19049;52.524;11.468;2023-12-07T07:14:48;41.53;;;9.60;;
32639;SDS011;19049;52.524;11.468;2023-12-07T07:17:14;29.70;;;8.30;;
32639;SDS011;19049;52.524;11.468;2023-12-07T07:19:40;37.27;;;9.73;;
32639;SDS011;19049;52.524;11.468;2023-12-07T07:22:06;36.77;;;12.03;;
32639;SDS011;19049;52.524;11.468;2023-12-07T07:24:34;24.03;;;9.00;;
32639;SDS011;19049;52.524;11.468;2023-12-07T07:26:59;26.53;;;9.67;;
32639;SDS011;19049;52.524;11.468;2023-12-07T07:29:25;26.07;;;11.07;;
32639;SDS011;19049;52.524;11.468;2023-12-07T07:31:52;24.07;;;11.67;;
32639;SDS011;19049;52.524;11.468;2023-12-07T07:34:18;25.93;;;13.10;;
32639;SDS011;19049;52.524;11.468;2023-12-07T07:36:43;29.83;;;15.30;;
32639;SDS011;19049;52.524;11.468;2023-12-07T07:39:09;30.20;;;13.70;;
32639;SDS011;19049;52.524;11.468;2023-12-07T07:41:36;31.73;;;15.20;;
32639;SDS011;19049;52.524;11.468;2023-12-07T07:44:02;31.60;;;16.17;;
32639;SDS011;19049;52.524;11.468;2023-12-07T07:46:27;30.30;;;15.17;;
32639;SDS011;19049;52.524;11.468;2023-12-07T07:48:53;28.00;;;15.53;;
32639;SDS011;19049;52.524;11.468;2023-12-07T07:51:19;28.07;;;16.00;;
32639;SDS011;19049;52.524;11.468;2023-12-07T07:53:44;34.43;;;17.73;;
32639;SDS011;19049;52.524;11.468;2023-12-07T07:56:10;28.10;;;15.60;;
32639;SDS011;19049;52.524;11.468;2023-12-07T07:58:35;26.43;;;14.87;;
32639;SDS011;19049;52.524;11.468;2023-12-07T08:01:01;25.77;;;14.73;;
32639;SDS011;19049;52.524;11.468;2023-12-07T08:03:27;23.53;;;14.30;;
32639;SDS011;19049;52.524;11.468;2023-12-07T08:05:52;22.47;;;13.30;;
32639;SDS011;19049;52.524;11.468;2023-12-07T08:08:18;29.80;;;16.17;;
32639;SDS011;19049;52.524;11.468;2023-12-07T08:10:43;29.97;;;17.20;;
32639;SDS011;19049;52.524;11.468;2023-12-07T08:13:09;29.60;;;16.77;;
32639;SDS011;19049;52.524;11.468;2023-12-07T08:15:35;32.93;;;18.03;;
32639;SDS011;19049;52.524;11.468;2023-12-07T08:18:00;28.20;;;16.53;;
32639;SDS011;19049;52.524;11.468;2023-12-07T08:20:27;27.30;;;15.03;;
32639;SDS011;19049;52.524;11.468;2023-12-07T08:22:52;26.93;;;15.70;;
32639;SDS011;19049;52.524;11.468;2023-12-07T08:25:18;25.10;;;14.37;;
32639;SDS011;19049;52.524;11.468;2023-12-07T08:27:44;26.00;;;16.20;;
32639;SDS011;19049;52.524;11.468;2023-12-07T08:30:11;27.13;;;16.03;;
32639;SDS011;19049;52.524;11.468;2023-12-07T08:32:37;27.40;;;16.40;;
32639;SDS011;19049;52.524;11.468;2023-12-07T08:35:03;26.00;;;15.03;;
32639;SDS011;19049;52.524;11.468;2023-12-07T08:37:31;24.03;;;14.97;;
32639;SDS011;19049;52.524;11.468;2023-12-07T08:39:57;25.00;;;14.47;;
32639;SDS011;19049;52.524;11.468;2023-12-07T08:42:23;23.73;;;13.80;;
32639;SDS011;19049;52.524;11.468;2023-12-07T08:44:48;22.97;;;14.80;;
32639;SDS011;19049;52.524;11.468;2023-12-07T08:47:14;25.60;;;14.17;;
32639;SDS011;19049;52.524;11.468;2023-12-07T08:49:40;28.80;;;14.43;;
32639;SDS011;19049;52.524;11.468;2023-12-07T08:52:05;24.13;;;15.87;;
32639;SDS011;19049;52.524;11.468;2023-12-07T08:54:31;25.40;;;15.57;;
32639;SDS011;19049;52.524;11.468;2023-12-07T08:56:57;28.13;;;17.07;;
32639;SDS011;19049;52.524;11.468;2023-12-07T08:59:23;27.73;;;16.90;;
32639;SDS011;19049;52.524;11.468;2023-12-07T09:01:48;24.97;;;15.53;;
32639;SDS011;19049;52.524;11.468;2023-12-07T09:04:14;23.20;;;15.63;;
32639;SDS011;19049;52.524;11.468;2023-12-07T09:06:40;26.57;;;16.67;;
32639;SDS011;19049;52.524;11.468;2023-12-07T09:09:05;22.80;;;14.90;;
32639;SDS011;19049;52.524;11.468;2023-12-07T09:11:31;23.07;;;14.37;;
32639;SDS011;19049;52.524;11.468;2023-12-07T09:13:56;22.63;;;14.90;;
32639;SDS011;19049;52.524;11.468;2023-12-07T09:16:22;22.37;;;15.00;;
32639;SDS011;19049;52.524;11.468;2023-12-07T09:18:48;21.63;;;14.27;;
32639;SDS011;19049;52.524;11.468;2023-12-07T09:21:14;19.00;;;13.30;;
32639;SDS011;19049;52.524;11.468;2023-12-07T09:23:39;22.03;;;13.20;;
32639;SDS011;19049;52.524;11.468;2023-12-07T09:26:05;21.13;;;13.83;;
32639;SDS011;19049;52.524;11.468;2023-12-07T09:28:31;20.83;;;14.10;;
32639;SDS011;19049;52.524;11.468;2023-12-07T09:30:58;19.63;;;13.80;;
32639;SDS011;19049;52.524;11.468;2023-12-07T09:33:24;20.07;;;13.03;;
32639;SDS011;19049;52.524;11.468;2023-12-07T09:35:49;20.63;;;14.00;;
32639;SDS011;19049;52.524;11.468;2023-12-07T09:38:15;19.97;;;13.00;;
32639;SDS011;19049;52.524;11.468;2023-12-07T09:40:41;20.37;;;14.13;;
32639;SDS011;19049;52.524;11.468;2023-12-07T09:43:07;23.80;;;14.90;;
32639;SDS011;19049;52.524;11.468;2023-12-07T09:45:33;22.80;;;15.63;;
32639;SDS011;19049;52.524;11.468;2023-12-07T09:47:59;26.03;;;16.53;;
32639;SDS011;19049;52.524;11.468;2023-12-07T09:50:26;22.63;;;14.83;;
32639;SDS011;19049;52.524;11.468;2023-12-07T09:52:53;21.17;;;14.53;;
32639;SDS011;19049;52.524;11.468;2023-12-07T09:55:23;24.40;;;16.50;;
32639;SDS011;19049;52.524;11.468;2023-12-07T09:57:49;21.50;;;14.60;;
32639;SDS011;19049;52.524;11.468;2023-12-07T10:00:16;23.93;;;14.57;;
32639;SDS011;19049;52.524;11.468;2023-12-07T10:02:43;21.50;;;13.70;;
32639;SDS011;19049;52.524;11.468;2023-12-07T10:05:11;20.80;;;15.17;;
32639;SDS011;19049;52.524;11.468;2023-12-07T10:07:42;21.83;;;15.07;;
32639;SDS011;19049;52.524;11.468;2023-12-07T10:10:10;20.93;;;14.17;;
32639;SDS011;19049;52.524;11.468;2023-12-07T10:12:51;23.90;;;16.10;;
32639;SDS011;19049;52.524;11.468;2023-12-07T10:15:18;21.97;;;15.67;;
32639;SDS011;19049;52.524;11.468;2023-12-07T10:17:49;25.13;;;17.10;;
32639;SDS011;19049;52.524;11.468;2023-12-07T10:20:24;26.43;;;17.30;;
32639;SDS011;19049;52.524;11.468;2023-12-07T10:23:01;22.33;;;16.27;;
32639;SDS011;19049;52.524;11.468;2023-12-07T10:25:30;20.37;;;14.47;;
32639;SDS011;19049;52.524;11.468;2023-12-07T10:27:57;20.97;;;15.63;;
32639;SDS011;19049;52.524;11.468;2023-12-07T10:30:22;22.67;;;15.67;;
32639;SDS011;19049;52.524;11.468;2023-12-07T10:32:51;21.67;;;15.00;;
32639;SDS011;19049;52.524;11.468;2023-12-07T10:35:18;24.53;;;16.47;;
32639;SDS011;19049;52.524;11.468;2023-12-07T10:37:45;25.03;;;18.30;;
32639;SDS011;19049;52.524;11.468;2023-12-07T10:40:12;24.20;;;17.33;;
32639;SDS011;19049;52.524;11.468;2023-12-07T10:42:38;22.20;;;14.93;;
32639;SDS011;19049;52.524;11.468;2023-12-07T10:45:07;19.27;;;15.37;;
32639;SDS011;19049;52.524;11.468;2023-12-07T10:47:35;21.13;;;15.60;;
32639;SDS011;19049;52.524;11.468;2023-12-07T10:50:02;23.10;;;15.00;;
32639;SDS011;19049;52.524;11.468;2023-12-07T10:52:44;22.50;;;16.47;;
32639;SDS011;19049;52.524;11.468;2023-12-07T10:55:17;18.33;;;14.60;;
32639;SDS011;19049;52.524;11.468;2023-12-07T10:57:46;19.60;;;14.13;;
32639;SDS011;19049;52.524;11.468;2023-12-07T11:00:12;20.77;;;13.77;;
32639;SDS011;19049;52.524;11.468;2023-12-07T11:02:38;19.10;;;13.87;;
32639;SDS011;19049;52.524;11.468;2023-12-07T11:05:06;23.77;;;16.37;;
32639;SDS011;19049;52.524;11.468;2023-12-07T11:07:40;21.03;;;15.60;;
32639;SDS011;19049;52.524;11.468;2023-12-07T11:10:39;18.17;;;13.00;;
32639;SDS011;19049;52.524;11.468;2023-12-07T11:13:35;18.03;;;13.00;;
32639;SDS011;19049;52.524;11.468;2023-12-07T11:16:02;17.53;;;13.17;;
32639;SDS011;19049;52.524;11.468;2023-12-07T11:18:29;20.50;;;15.23;;
32639;SDS011;19049;52.524;11.468;2023-12-07T11:20:55;20.43;;;14.90;;
32639;SDS011;19049;52.524;11.468;2023-12-07T11:23:21;18.77;;;14.40;;
32639;SDS011;19049;52.524;11.468;2023-12-07T11:25:47;17.73;;;14.50;;
32639;SDS011;19049;52.524;11.468;2023-12-07T11:28:15;17.00;;;13.23;;
32639;SDS011;19049;52.524;11.468;2023-12-07T11:30:41;18.70;;;13.17;;
32639;SDS011;19049;52.524;11.468;2023-12-07T11:33:09;15.63;;;12.03;;
32639;SDS011;19049;52.524;11.468;2023-12-07T11:38:27;17.93;;;13.57;;
32639;SDS011;19049;52.524;11.468;2023-12-07T11:40:53;15.10;;;11.87;;
32639;SDS011;19049;52.524;11.468;2023-12-07T11:45:58;13.87;;;11.00;;
32639;SDS011;19049;52.524;11.468;2023-12-07T11:48:24;16.90;;;12.40;;
32639;SDS011;19049;52.524;11.468;2023-12-07T11:53:23;16.80;;;12.87;;
32639;SDS011;19049;52.524;11.468;2023-12-07T11:55:50;18.07;;;13.20;;
32639;SDS011;19049;52.524;11.468;2023-12-07T11:58:16;16.00;;;12.27;;
32639;SDS011;19049;52.524;11.468;2023-12-07T12:00:43;22.50;;;14.40;;
32639;SDS011;19049;52.524;11.468;2023-12-07T12:03:11;18.13;;;13.73;;
32639;SDS011;19049;52.524;11.468;2023-12-07T12:05:38;19.87;;;14.70;;
32639;SDS011;19049;52.524;11.468;2023-12-07T12:08:05;18.87;;;13.87;;
32639;SDS011;19049;52.524;11.468;2023-12-07T12:10:31;22.80;;;16.50;;
32639;SDS011;19049;52.524;11.468;2023-12-07T12:12:57;21.53;;;17.27;;
32639;SDS011;19049;52.524;11.468;2023-12-07T12:15:25;17.90;;;13.00;;
32639;SDS011;19049;52.524;11.468;2023-12-07T12:17:51;23.90;;;16.57;;
32639;SDS011;19049;52.524;11.468;2023-12-07T12:20:18;20.47;;;14.47;;
32639;SDS011;19049;52.524;11.468;2023-12-07T12:22:44;17.67;;;13.90;;
32639;SDS011;19049;52.524;11.468;2023-12-07T12:25:09;19.50;;;13.77;;
32639;SDS011;19049;52.524;11.468;2023-12-07T12:27:35;19.87;;;15.07;;
32639;SDS011;19049;52.524;11.468;2023-12-07T12:30:01;18.33;;;13.50;;
32639;SDS011;19049;52.524;11.468;2023-12-07T12:32:28;18.17;;;13.43;;
32639;SDS011;19049;52.524;11.468;2023-12-07T12:35:07;18.07;;;12.03;;
32639;SDS011;19049;52.524;11.468;2023-12-07T12:37:33;15.73;;;11.90;;
32639;SDS011;19049;52.524;11.468;2023-12-07T12:40:04;16.13;;;12.17;;
32639;SDS011;19049;52.524;11.468;2023-12-07T12:42:30;16.63;;;12.40;;
32639;SDS011;19049;52.524;11.468;2023-12-07T12:44:56;12.83;;;10.50;;
32639;SDS011;19049;52.524;11.468;2023-12-07T12:47:22;14.83;;;11.27;;
32639;SDS011;19049;52.524;11.468;2023-12-07T12:49:48;15.67;;;11.47;;
32639;SDS011;19049;52.524;11.468;2023-12-07T12:52:17;14.63;;;11.17;;
32639;SDS011;19049;52.524;11.468;2023-12-07T12:54:43;11.97;;;9.63;;
32639;SDS011;19049;52.524;11.468;2023-12-07T12:57:09;12.57;;;10.50;;
32639;SDS011;19049;52.524;11.468;2023-12-07T12:59:35;15.10;;;11.00;;
32639;SDS011;19049;52.524;11.468;2023-12-07T13:02:02;14.67;;;10.70;;
32639;SDS011;19049;52.524;11.468;2023-12-07T13:04:30;14.60;;;11.40;;
32639;SDS011;19049;52.524;11.468;2023-12-07T13:06:56;16.40;;;11.27;;
32639;SDS011;19049;52.524;11.468;2023-12-07T13:09:22;13.10;;;10.03;;
32639;SDS011;19049;52.524;11.468;2023-12-07T13:11:48;14.67;;;11.53;;
32639;SDS011;19049;52.524;11.468;2023-12-07T13:14:14;15.23;;;11.07;;
32639;SDS011;19049;52.524;11.468;2023-12-07T13:16:40;13.27;;;10.57;;
32639;SDS011;19049;52.524;11.468;2023-12-07T13:19:05;14.90;;;10.77;;
32639;SDS011;19049;52.524;11.468;2023-12-07T13:21:32;16.23;;;11.57;;
32639;SDS011;19049;52.524;11.468;2023-12-07T13:23:57;15.30;;;10.53;;
32639;SDS011;19049;52.524;11.468;2023-12-07T13:26:24;15.13;;;10.77;;
32639;SDS011;19049;52.524;11.468;2023-12-07T13:28:50;12.10;;;9.40;;
32639;SDS011;19049;52.524;11.468;2023-12-07T13:31:15;12.27;;;9.27;;
32639;SDS011;19049;52.524;11.468;2023-12-07T13:33:41;12.53;;;9.07;;
32639;SDS011;19049;52.524;11.468;2023-12-07T13:36:07;11.00;;;8.80;;
32639;SDS011;19049;52.524;11.468;2023-12-07T13:38:33;11.97;;;8.00;;
32639;SDS011;19049;52.524;11.468;2023-12-07T13:40:59;14.27;;;9.73;;
32639;SDS011;19049;52.524;11.468;2023-12-07T13:43:25;12.27;;;8.67;;
32639;SDS011;19049;52.524;11.468;2023-12-07T13:45:52;13.33;;;9.13;;
32639;SDS011;19049;52.524;11.468;2023-12-07T13:48:18;11.40;;;8.30;;
32639;SDS011;19049;52.524;11.468;2023-12-07T13:50:43;12.67;;;9.50;;
32639;SDS011;19049;52.524;11.468;2023-12-07T13:53:09;14.33;;;9.17;;
32639;SDS011;19049;52.524;11.468;2023-12-07T13:55:38;12.20;;;9.53;;
32639;SDS011;19049;52.524;11.468;2023-12-07T13:58:04;12.37;;;9.03;;
32639;SDS011;19049;52.524;11.468;2023-12-07T14:00:31;12.63;;;9.03;;
32639;SDS011;19049;52.524;11.468;2023-12-07T14:02:58;13.93;;;8.43;;
32639;SDS011;19049;52.524;11.468;2023-12-07T14:05:24;11.23;;;8.47;;
32639;SDS011;19049;52.524;11.468;2023-12-07T14:07:50;9.47;;;7.60;;
32639;SDS011;19049;52.524;11.468;2023-12-07T14:10:16;9.20;;;6.80;;
32639;SDS011;19049;52.524;11.468;2023-12-07T14:12:41;10.47;;;7.47;;
32639;SDS011;19049;52.524;11.468;2023-12-07T14:15:07;12.83;;;8.43;;
32639;SDS011;19049;52.524;11.468;2023-12-07T14:17:34;13.33;;;9.40;;
32639;SDS011;19049;52.524;11.468;2023-12-07T14:20:03;12.63;;;9.33;;